Terminal Aerodrome Forecast
Issued by NWS

Current Version | Previous Version | Graphics & Text | Print | Product List | Glossary On
Versions: 1 2 3 4 5 6 7 8 9 10 11 12 13 14 15 16 17 18 19 20 21 22 23 24 25 26 27 28
000
FTUS41 KRNK 241729
TAFLWB
TAF
KLWB 241729Z 2418/2518 21013G27KT P6SM SCT030
     FM242200 26007KT P6SM BKN040
     FM250600 28004KT P6SM BKN050
     FM251400 27008G16KT P6SM SCT060 OVC120=

USA.gov is the U.S. government's official web portal to all federal, state and local government web resources and services.